Airport Search
   

FIGARI SUD CORSE AIRPORT (LFKF / FSC)

Weather

METAR: LFKF 240130Z AUTO VRB01KT CAVOK 09/08 Q1018

TAF: TAF LFKF 231400Z 2315/2415 24010KT CAVOK BECMG 2319/2321 VRB02KT

Search Results

FBO

 

SCALA HANDLING

Phone: +33(0)6 24 00 15 99
Mobile: +33(0)6 07 88 85 78
fsc.executive@scalafigari.fr
www.aeroport.fr

SCALA HANDLING

Phone: +33(0)6 24 00 15 99
Mobile: +33(0)6 07 88 85 78
fsc.executive@scalafigari.fr
www.aeroport.fr
Handling Request Navigate To

AIRPORT INFORMATION

 

FIGARI SUD CORSE AIRPORT

Phone: +33 04 95 71 10 10
Fax: +33 04 95 71 10 00
caroline.ciabrini@sudcorse.cci.fr
www.2a.cci.fr

FIGARI SUD CORSE AIRPORT

Phone: +33 04 95 71 10 10
Fax: +33 04 95 71 10 00
caroline.ciabrini@sudcorse.cci.fr
www.2a.cci.fr
Request

CATERING SUPPLIER

 

SKY CUCINA

Phone: +33 627 615 096
LFKFcatering@skycucina.com
Request

SKY CUCINA

Phone: +33 627 615 096
LFKFcatering@skycucina.com
Request

HOTEL

HOTELS NEAR THE AIRPORT

HOTELS NEAR THE AIRPORT


Map



Booking.com